createdAt,value
2023-02-11T00:01:07.946Z,22.06
2023-02-11T00:03:34.828Z,20.28
2023-02-11T00:06:01.637Z,18.08
2023-02-11T00:08:28.414Z,18.20
2023-02-11T00:10:55.219Z,19.79
2023-02-11T00:13:21.966Z,20.40
2023-02-11T00:15:49.162Z,20.80
2023-02-11T00:18:16.155Z,21.05
2023-02-11T00:20:42.903Z,21.15
2023-02-11T00:23:09.649Z,21.33
2023-02-11T00:25:37.243Z,21.45
2023-02-11T00:28:04.052Z,21.57
2023-02-11T00:30:30.904Z,21.60
2023-02-11T00:32:57.689Z,21.76
2023-02-11T00:35:24.424Z,21.78
2023-02-11T00:37:51.184Z,21.89
2023-02-11T00:40:17.971Z,21.85
2023-02-11T00:42:44.701Z,21.94
2023-02-11T00:45:11.485Z,20.90
2023-02-11T00:47:38.234Z,18.07
2023-02-11T00:50:05.199Z,17.23
2023-02-11T00:52:31.945Z,19.30
2023-02-11T00:54:58.678Z,20.06
2023-02-11T00:57:25.412Z,20.71
2023-02-11T00:59:52.156Z,20.87
2023-02-11T01:02:18.923Z,20.98
2023-02-11T01:04:45.655Z,21.07
2023-02-11T01:07:12.413Z,21.39
2023-02-11T01:09:39.194Z,21.40
2023-02-11T01:12:05.958Z,21.56
2023-02-11T01:14:32.865Z,21.49
2023-02-11T01:16:59.621Z,21.68
2023-02-11T01:19:26.425Z,21.66
2023-02-11T01:21:53.192Z,21.82
2023-02-11T01:24:19.914Z,21.88
2023-02-11T01:26:46.694Z,21.90
2023-02-11T01:29:13.438Z,21.93
2023-02-11T01:31:40.293Z,18.91
2023-02-11T01:34:07.085Z,17.11
2023-02-11T01:36:33.856Z,18.46
2023-02-11T01:39:00.598Z,19.79
2023-02-11T01:41:27.352Z,20.25
2023-02-11T01:43:54.131Z,20.75
2023-02-11T01:46:20.931Z,20.88
2023-02-11T01:48:47.734Z,21.01
2023-02-11T01:51:14.610Z,21.22
2023-02-11T01:54:00.245Z,21.34
2023-02-11T01:56:45.506Z,21.50
2023-02-11T01:59:12.258Z,21.61
2023-02-11T02:01:39.014Z,21.65
2023-02-11T02:04:05.827Z,21.62
2023-02-11T02:06:32.574Z,21.72
2023-02-11T02:08:59.311Z,21.80
2023-02-11T02:11:26.250Z,21.86
2023-02-11T02:13:53.024Z,21.88
2023-02-11T02:16:19.807Z,21.95
2023-02-11T02:18:48.595Z,20.75
2023-02-11T02:21:15.356Z,18.07
2023-02-11T02:23:42.337Z,17.23
2023-02-11T02:26:09.089Z,19.31
2023-02-11T02:28:36.027Z,20.21
2023-02-11T02:31:02.810Z,20.53
2023-02-11T02:33:29.731Z,20.94
2023-02-11T02:35:56.464Z,20.95
2023-02-11T02:38:23.201Z,21.16
2023-02-11T02:40:49.961Z,21.31
2023-02-11T02:43:16.708Z,21.31
2023-02-11T02:45:43.479Z,21.41
2023-02-11T02:48:10.241Z,21.66
2023-02-11T02:50:36.970Z,21.65
2023-02-11T02:53:03.704Z,21.74
2023-02-11T02:55:30.463Z,21.91
2023-02-11T02:57:57.320Z,21.85
2023-02-11T03:00:24.056Z,21.96
2023-02-11T03:02:50.873Z,22.02
2023-02-11T03:05:17.595Z,21.99
2023-02-11T03:07:44.381Z,20.31
2023-02-11T03:10:11.147Z,17.63
2023-02-11T03:12:37.889Z,17.98
2023-02-11T03:15:04.628Z,19.82
2023-02-11T03:17:31.378Z,20.42
2023-02-11T03:19:58.112Z,20.69
2023-02-11T03:22:24.834Z,20.97
2023-02-11T03:24:51.589Z,21.10
2023-02-11T03:27:18.321Z,21.31
2023-02-11T03:29:45.150Z,21.35
2023-02-11T03:32:15.946Z,21.45
2023-02-11T03:34:42.858Z,21.56
2023-02-11T03:37:09.622Z,21.61
2023-02-11T03:39:36.384Z,21.68
2023-02-11T03:42:03.107Z,21.83
2023-02-11T03:44:30.680Z,21.87
2023-02-11T03:46:57.450Z,21.95
2023-02-11T03:49:24.213Z,21.93
2023-02-11T03:51:50.943Z,22.02
2023-02-11T03:54:17.691Z,19.48
2023-02-11T03:56:45.811Z,17.53
2023-02-11T03:59:12.572Z,18.45
2023-02-11T04:01:39.333Z,19.94
2023-02-11T04:04:06.073Z,20.30
2023-02-11T04:06:32.808Z,20.83
2023-02-11T04:08:59.575Z,20.95
2023-02-11T04:11:26.298Z,21.23
2023-02-11T04:13:53.048Z,21.42
2023-02-11T04:16:19.822Z,21.41
2023-02-11T04:18:46.596Z,21.39
2023-02-11T04:21:13.390Z,21.57
2023-02-11T04:23:40.143Z,21.61
2023-02-11T04:26:06.874Z,21.76
2023-02-11T04:28:34.781Z,21.73
2023-02-11T04:31:01.657Z,21.84
2023-02-11T04:33:28.514Z,21.88
2023-02-11T04:35:55.245Z,21.96
2023-02-11T04:38:24.131Z,20.54
2023-02-11T04:40:50.875Z,17.93
2023-02-11T04:43:17.632Z,17.32
2023-02-11T04:45:44.408Z,19.50
2023-02-11T04:48:11.164Z,20.29
2023-02-11T04:50:37.919Z,20.74
2023-02-11T04:53:04.670Z,20.86
2023-02-11T04:55:31.422Z,21.10
2023-02-11T04:57:58.162Z,21.14
2023-02-11T05:00:24.915Z,21.23
2023-02-11T05:02:51.710Z,21.39
2023-02-11T05:05:18.431Z,21.55
2023-02-11T05:07:45.274Z,21.66
2023-02-11T05:10:12.025Z,21.74
2023-02-11T05:12:38.790Z,21.76
2023-02-11T05:15:05.554Z,21.92
2023-02-11T05:17:32.288Z,21.86
2023-02-11T05:19:59.021Z,21.96
2023-02-11T05:22:25.789Z,22.00
2023-02-11T05:24:52.537Z,19.27
2023-02-11T05:27:19.354Z,17.18
2023-02-11T05:29:46.156Z,18.14
2023-02-11T05:32:12.894Z,19.78
2023-02-11T05:34:39.635Z,20.37
2023-02-11T05:37:06.432Z,20.55
2023-02-11T05:39:33.309Z,20.87
2023-02-11T05:42:00.038Z,21.17
2023-02-11T05:44:27.897Z,21.20
2023-02-11T05:46:54.687Z,21.32
2023-02-11T05:49:21.425Z,21.34
2023-02-11T05:51:48.197Z,21.71
2023-02-11T05:54:14.989Z,21.73
2023-02-11T05:56:43.790Z,21.82
2023-02-11T05:59:11.503Z,21.72
2023-02-11T06:01:38.239Z,21.79
2023-02-11T06:04:04.965Z,21.88
2023-02-11T06:06:31.728Z,21.95
2023-02-11T06:08:58.461Z,22.09
2023-02-11T06:11:25.276Z,22.04
2023-02-11T06:13:52.034Z,19.17
2023-02-11T06:16:18.819Z,17.24
2023-02-11T06:18:45.591Z,18.32
2023-02-11T06:21:12.412Z,20.03
2023-02-11T06:23:39.264Z,20.31
2023-02-11T06:26:06.023Z,20.75
2023-02-11T06:28:32.900Z,20.95
2023-02-11T06:30:59.852Z,21.16
2023-02-11T06:33:26.658Z,21.33
2023-02-11T06:35:53.449Z,21.39
2023-02-11T06:38:20.201Z,21.43
2023-02-11T06:40:46.961Z,21.52
2023-02-11T06:43:13.758Z,21.62
2023-02-11T06:45:40.515Z,21.78
2023-02-11T06:48:07.384Z,21.74
2023-02-11T06:50:34.171Z,21.86
2023-02-11T06:53:00.920Z,21.93
2023-02-11T06:55:27.711Z,21.94
2023-02-11T06:57:54.448Z,21.75
2023-02-11T07:00:21.204Z,18.59
2023-02-11T07:02:48.063Z,17.12
2023-02-11T07:05:14.875Z,18.77
2023-02-11T07:07:41.612Z,19.89
2023-02-11T07:10:08.373Z,20.44
2023-02-11T07:12:35.128Z,20.67
2023-02-11T07:15:02.141Z,20.85
2023-02-11T07:17:28.875Z,21.05
2023-02-11T07:19:55.848Z,21.19
2023-02-11T07:22:22.589Z,21.44
2023-02-11T07:24:49.307Z,21.35
2023-02-11T07:27:16.108Z,21.47
2023-02-11T07:29:42.875Z,21.61
2023-02-11T07:32:09.712Z,21.67
2023-02-11T07:34:36.568Z,21.93
2023-02-11T07:37:03.366Z,21.84
2023-02-11T07:39:30.090Z,21.91
2023-02-11T07:41:56.886Z,21.96
2023-02-11T07:44:23.649Z,22.08
2023-02-11T07:46:50.580Z,22.07
2023-02-11T07:49:17.434Z,19.16
2023-02-11T07:51:44.199Z,17.37
2023-02-11T07:54:10.928Z,18.36
2023-02-11T07:56:37.690Z,20.10
2023-02-11T07:59:04.420Z,20.40
2023-02-11T08:01:31.188Z,20.78
2023-02-11T08:03:57.946Z,20.95
2023-02-11T08:06:24.768Z,21.09
2023-02-11T08:08:51.543Z,21.31
2023-02-11T08:11:18.291Z,21.43
2023-02-11T08:13:45.061Z,21.52
2023-02-11T08:16:11.895Z,21.58
2023-02-11T08:18:38.662Z,21.70
2023-02-11T08:21:05.726Z,21.72
2023-02-11T08:23:32.493Z,21.78
2023-02-11T08:25:59.242Z,21.86
2023-02-11T08:28:26.006Z,21.96
2023-02-11T08:30:53.144Z,21.89
2023-02-11T08:33:20.040Z,18.58
2023-02-11T08:35:46.826Z,17.12
2023-02-11T08:38:13.559Z,18.82
2023-02-11T08:40:40.378Z,20.17
2023-02-11T08:43:08.230Z,20.36
2023-02-11T08:45:35.063Z,20.65
2023-02-11T08:48:01.894Z,20.97
2023-02-11T08:50:28.644Z,21.02
2023-02-11T08:52:55.405Z,21.26
2023-02-11T08:55:22.186Z,21.32
2023-02-11T08:57:48.921Z,21.48
2023-02-11T09:00:16.337Z,21.60
2023-02-11T09:02:43.138Z,21.64
2023-02-11T09:05:09.887Z,21.76
2023-02-11T09:07:36.652Z,21.82
2023-02-11T09:10:03.433Z,21.83
2023-02-11T09:12:30.175Z,21.93
2023-02-11T09:14:57.043Z,22.07
2023-02-11T09:17:23.948Z,20.04
2023-02-11T09:19:50.690Z,17.58
2023-02-11T09:22:17.422Z,17.61
2023-02-11T09:24:44.201Z,19.62
2023-02-11T09:27:10.934Z,20.20
2023-02-11T09:29:37.751Z,20.55
2023-02-11T09:32:04.833Z,20.80
2023-02-11T09:34:32.454Z,21.00
2023-02-11T09:36:59.283Z,21.16
2023-02-11T09:39:26.681Z,21.28
2023-02-11T09:41:53.435Z,21.39
2023-02-11T09:44:20.173Z,21.45
2023-02-11T09:46:46.918Z,21.57
2023-02-11T09:49:13.705Z,21.69
2023-02-11T09:51:40.592Z,21.79
2023-02-11T09:54:07.335Z,21.87
2023-02-11T09:56:34.083Z,21.85
2023-02-11T09:59:00.806Z,21.89
2023-02-11T10:01:27.609Z,20.27
2023-02-11T10:03:54.676Z,17.98
2023-02-11T10:06:21.521Z,17.67
2023-02-11T10:08:48.280Z,19.64
2023-02-11T10:11:29.600Z,20.32
2023-02-11T10:13:57.908Z,20.77
2023-02-11T10:16:24.653Z,20.86
2023-02-11T10:18:51.522Z,21.05
2023-02-11T10:21:18.300Z,21.15
2023-02-11T10:23:45.099Z,21.43
2023-02-11T10:26:11.896Z,21.45
2023-02-11T10:28:39.342Z,21.51
2023-02-11T10:31:06.267Z,21.64
2023-02-11T10:33:33.101Z,21.79
2023-02-11T10:35:59.865Z,21.81
2023-02-11T10:38:27.613Z,21.81
2023-02-11T10:40:54.347Z,22.03
2023-02-11T10:43:21.090Z,21.83
2023-02-11T10:45:47.836Z,18.89
2023-02-11T10:48:16.456Z,17.48
2023-02-11T10:50:43.299Z,18.65
2023-02-11T10:53:10.030Z,19.78
2023-02-11T10:55:36.791Z,20.35
2023-02-11T10:58:03.746Z,20.67
2023-02-11T11:00:30.672Z,21.03
2023-02-11T11:02:57.511Z,21.18
2023-02-11T11:05:24.297Z,21.17
2023-02-11T11:07:51.043Z,21.31
2023-02-11T11:10:17.795Z,21.56
2023-02-11T11:12:44.555Z,21.55
2023-02-11T11:15:11.293Z,21.62
2023-02-11T11:17:38.026Z,21.62
2023-02-11T11:20:04.833Z,21.86
2023-02-11T11:22:31.608Z,21.84
2023-02-11T11:25:01.394Z,21.84
2023-02-11T11:27:30.067Z,21.95
2023-02-11T11:29:56.836Z,19.73
2023-02-11T11:32:23.578Z,17.79
2023-02-11T11:34:50.586Z,17.89
2023-02-11T11:37:17.317Z,19.78
2023-02-11T11:39:44.071Z,20.34
2023-02-11T11:42:11.315Z,20.71
2023-02-11T11:44:38.101Z,20.90
2023-02-11T11:47:04.864Z,21.21
2023-02-11T11:49:31.630Z,21.29
2023-02-11T11:51:58.366Z,21.31
2023-02-11T11:54:25.102Z,21.44
2023-02-11T11:56:51.900Z,21.59
2023-02-11T11:59:18.683Z,21.64
2023-02-11T12:01:45.445Z,21.84
2023-02-11T12:04:12.209Z,21.83
2023-02-11T12:06:39.036Z,21.98
2023-02-11T12:09:05.881Z,21.97
2023-02-11T12:11:32.647Z,22.12
2023-02-11T12:13:59.390Z,20.19
2023-02-11T12:16:26.148Z,18.17
2023-02-11T12:18:53.013Z,18.24
2023-02-11T12:21:19.960Z,19.63
2023-02-11T12:23:46.821Z,20.32
2023-02-11T12:26:13.809Z,20.68
2023-02-11T12:28:40.911Z,20.86
2023-02-11T12:31:07.827Z,21.08
2023-02-11T12:33:34.674Z,21.19
2023-02-11T12:36:01.409Z,21.36
2023-02-11T12:38:28.141Z,21.54
2023-02-11T12:40:54.887Z,21.58
2023-02-11T12:43:21.632Z,21.68
2023-02-11T12:45:48.453Z,21.70
2023-02-11T12:48:15.220Z,21.80
2023-02-11T12:50:42.040Z,21.87
2023-02-11T12:53:08.766Z,21.98
2023-02-11T12:55:38.334Z,21.55
2023-02-11T12:58:06.164Z,18.89
2023-02-11T13:00:32.887Z,17.48
2023-02-11T13:02:59.669Z,19.03
2023-02-11T13:05:26.467Z,19.90
2023-02-11T13:07:53.270Z,20.48
2023-02-11T13:10:20.021Z,20.83
2023-02-11T13:13:05.359Z,21.07
2023-02-11T13:15:32.146Z,21.21
2023-02-11T13:17:58.870Z,21.35
2023-02-11T13:20:25.598Z,21.42
2023-02-11T13:22:52.352Z,21.61
2023-02-11T13:25:19.092Z,21.69
2023-02-11T13:27:45.818Z,21.77
2023-02-11T13:30:13.184Z,21.88
2023-02-11T13:32:39.930Z,21.85
2023-02-11T13:35:06.674Z,21.96
2023-02-11T13:37:33.890Z,20.65
2023-02-11T13:40:00.672Z,18.22
2023-02-11T13:42:27.434Z,17.19
2023-02-11T13:44:54.201Z,19.20
2023-02-11T13:47:20.935Z,20.16
2023-02-11T13:49:47.684Z,20.72
2023-02-11T13:52:14.467Z,20.80
2023-02-11T13:54:42.396Z,21.07
2023-02-11T13:57:09.571Z,21.12
2023-02-11T13:59:36.332Z,21.33
2023-02-11T14:02:21.741Z,21.34
2023-02-11T14:05:07.081Z,21.60
2023-02-11T14:07:52.288Z,21.67
2023-02-11T14:10:19.187Z,21.72
2023-02-11T14:12:45.918Z,21.80
2023-02-11T14:15:12.656Z,21.84
2023-02-11T14:17:39.421Z,21.97
2023-02-11T14:20:06.215Z,21.98
2023-02-11T14:22:33.002Z,19.92
2023-02-11T14:24:59.911Z,18.01
2023-02-11T14:27:26.649Z,18.94
2023-02-11T14:29:53.378Z,19.31
2023-02-11T14:32:20.115Z,20.22
2023-02-11T14:34:46.852Z,20.53
2023-02-11T14:37:13.588Z,20.87
2023-02-11T14:39:40.356Z,21.07
2023-02-11T14:42:07.151Z,21.26
2023-02-11T14:44:33.962Z,21.35
2023-02-11T14:47:00.732Z,21.45
2023-02-11T14:49:27.497Z,21.55
2023-02-11T14:51:54.222Z,21.58
2023-02-11T14:54:22.626Z,21.71
2023-02-11T14:56:49.398Z,21.80
2023-02-11T14:59:16.131Z,21.89
2023-02-11T15:01:43.047Z,21.84
2023-02-11T15:04:09.967Z,22.05
2023-02-11T15:06:36.708Z,20.04
2023-02-11T15:09:03.555Z,18.71
2023-02-11T15:11:30.320Z,18.94
2023-02-11T15:13:57.049Z,19.57
2023-02-11T15:16:23.857Z,19.71
2023-02-11T15:18:51.548Z,20.39
2023-02-11T15:21:18.287Z,20.82
2023-02-11T15:23:45.031Z,21.02
2023-02-11T15:26:11.770Z,21.22
2023-02-11T15:28:38.588Z,21.46
2023-02-11T15:31:05.545Z,21.40
2023-02-11T15:33:32.568Z,21.48
2023-02-11T15:35:59.371Z,21.56
2023-02-11T15:38:26.221Z,21.61
2023-02-11T15:40:53.223Z,21.71
2023-02-11T15:43:20.190Z,21.78
2023-02-11T15:45:48.050Z,21.94
2023-02-11T15:48:14.798Z,22.06
2023-02-11T15:50:41.587Z,20.13
2023-02-11T15:53:08.497Z,18.67
2023-02-11T15:55:35.240Z,19.07
2023-02-11T15:58:01.972Z,19.42
2023-02-11T16:00:28.725Z,20.13
2023-02-11T16:02:55.506Z,20.71
2023-02-11T16:05:22.247Z,20.89
2023-02-11T16:07:52.276Z,21.19
2023-02-11T16:10:19.093Z,21.28
2023-02-11T16:12:45.862Z,21.34
2023-02-11T16:15:12.617Z,21.52
2023-02-11T16:17:39.380Z,21.63
2023-02-11T16:20:06.464Z,21.65
2023-02-11T16:22:37.962Z,21.71
2023-02-11T16:25:05.634Z,21.89
2023-02-11T16:27:32.362Z,21.88
2023-02-11T16:29:59.138Z,21.96
2023-02-11T16:32:25.962Z,20.65
2023-02-11T16:34:52.708Z,19.31
2023-02-11T16:37:19.467Z,18.76
2023-02-11T16:39:46.255Z,19.59
2023-02-11T16:42:13.020Z,19.97
2023-02-11T16:44:39.858Z,20.52
2023-02-11T16:47:06.703Z,20.94
2023-02-11T16:49:33.658Z,21.06
2023-02-11T16:52:03.251Z,21.30
2023-02-11T16:54:30.035Z,21.36
2023-02-11T16:56:56.795Z,21.54
2023-02-11T16:59:23.532Z,21.55
2023-02-11T17:01:50.269Z,21.66
2023-02-11T17:04:17.152Z,21.91
2023-02-11T17:06:44.118Z,21.97
2023-02-11T17:09:10.867Z,21.90
2023-02-11T17:11:37.611Z,21.90
2023-02-11T17:14:04.369Z,21.45
2023-02-11T17:16:32.370Z,19.55
2023-02-11T17:18:59.193Z,18.03
2023-02-11T17:21:29.482Z,19.27
2023-02-11T17:23:56.684Z,19.99
2023-02-11T17:26:23.428Z,20.53
2023-02-11T17:28:50.214Z,20.87
2023-02-11T17:31:17.121Z,21.03
2023-02-11T17:33:43.944Z,21.17
2023-02-11T17:36:10.697Z,21.25
2023-02-11T17:38:37.495Z,21.42
2023-02-11T17:41:04.699Z,21.56
2023-02-11T17:43:31.443Z,21.58
2023-02-11T17:45:58.259Z,21.77
2023-02-11T17:48:25.064Z,21.90
2023-02-11T17:50:51.936Z,21.90
2023-02-11T17:53:18.804Z,21.97
2023-02-11T17:55:45.675Z,20.35
2023-02-11T17:58:12.471Z,19.27
2023-02-11T18:00:39.302Z,18.42
2023-02-11T18:03:06.054Z,19.61
2023-02-11T18:05:32.800Z,20.33
2023-02-11T18:07:59.522Z,20.61
2023-02-11T18:10:26.265Z,21.06
2023-02-11T18:12:53.021Z,21.12
2023-02-11T18:15:19.801Z,21.23
2023-02-11T18:17:46.528Z,21.50
2023-02-11T18:20:13.337Z,21.50
2023-02-11T18:22:40.822Z,21.67
2023-02-11T18:25:07.560Z,21.70
2023-02-11T18:27:34.344Z,21.86
2023-02-11T18:30:01.109Z,21.97
2023-02-11T18:32:27.891Z,21.91
2023-02-11T18:34:54.651Z,22.08
2023-02-11T18:37:21.490Z,20.27
2023-02-11T18:39:48.314Z,18.47
2023-02-11T18:42:15.070Z,18.34
2023-02-11T18:44:41.806Z,19.59
2023-02-11T18:47:08.572Z,20.33
2023-02-11T18:49:36.109Z,20.71
2023-02-11T18:52:02.842Z,21.03
2023-02-11T18:54:29.588Z,21.28
2023-02-11T18:56:56.338Z,21.26
2023-02-11T18:59:23.066Z,21.46
2023-02-11T19:01:50.963Z,21.52
2023-02-11T19:04:19.803Z,21.60
2023-02-11T19:06:46.656Z,21.69
2023-02-11T19:09:13.383Z,21.82
2023-02-11T19:11:53.991Z,21.92
2023-02-11T19:14:20.826Z,21.86
2023-02-11T19:16:47.702Z,21.96
2023-02-11T19:19:14.500Z,21.98
2023-02-11T19:21:41.244Z,19.01
2023-02-11T19:24:08.067Z,17.58
2023-02-11T19:26:34.896Z,18.71
2023-02-11T19:29:01.906Z,19.86
2023-02-11T19:31:32.004Z,20.55
2023-02-11T19:33:58.996Z,20.84
2023-02-11T19:36:25.902Z,20.98
2023-02-11T19:38:52.703Z,21.18
2023-02-11T19:41:22.982Z,21.34
2023-02-11T19:43:52.892Z,21.45
2023-02-11T19:46:20.476Z,21.51
2023-02-11T19:48:47.357Z,21.56
2023-02-11T19:51:14.098Z,21.69
2023-02-11T19:53:40.950Z,21.84
2023-02-11T19:56:07.839Z,21.85
2023-02-11T19:58:34.640Z,21.94
2023-02-11T20:01:01.419Z,22.06
2023-02-11T20:03:28.195Z,20.43
2023-02-11T20:05:54.944Z,18.86
2023-02-11T20:08:21.700Z,18.24
2023-02-11T20:10:48.460Z,19.38
2023-02-11T20:13:15.470Z,19.89
2023-02-11T20:15:42.394Z,20.51
2023-02-11T20:18:09.152Z,20.79
2023-02-11T20:20:37.244Z,21.08
2023-02-11T20:23:03.981Z,21.16
2023-02-11T20:25:30.757Z,21.36
2023-02-11T20:27:57.604Z,21.43
2023-02-11T20:30:24.375Z,21.68
2023-02-11T20:32:51.183Z,21.72
2023-02-11T20:35:18.011Z,21.71
2023-02-11T20:37:44.808Z,21.80
2023-02-11T20:40:11.583Z,21.95
2023-02-11T20:42:38.348Z,22.01
2023-02-11T20:45:05.114Z,21.75
2023-02-11T20:47:32.151Z,18.97
2023-02-11T20:49:58.918Z,17.34
2023-02-11T20:52:25.734Z,18.83
2023-02-11T20:54:52.516Z,19.98
2023-02-11T20:57:19.263Z,20.46
2023-02-11T20:59:46.067Z,20.75
2023-02-11T21:02:13.323Z,20.98
2023-02-11T21:04:40.193Z,21.05
2023-02-11T21:07:06.951Z,21.25
2023-02-11T21:09:33.791Z,21.39
2023-02-11T21:12:00.612Z,21.52
2023-02-11T21:14:27.580Z,21.59
2023-02-11T21:16:54.331Z,21.76
2023-02-11T21:19:21.176Z,21.75
2023-02-11T21:21:48.219Z,21.87
2023-02-11T21:24:15.153Z,21.93
2023-02-11T21:26:41.953Z,22.00
2023-02-11T21:29:08.717Z,22.04
2023-02-11T21:31:35.726Z,19.74
2023-02-11T21:34:02.762Z,18.33
2023-02-11T21:36:29.575Z,18.81
2023-02-11T21:38:56.389Z,19.52
2023-02-11T21:41:24.569Z,20.25
2023-02-11T21:43:51.328Z,20.77
2023-02-11T21:46:18.143Z,20.97
2023-02-11T21:48:44.893Z,21.15
2023-02-11T21:51:11.620Z,21.25
2023-02-11T21:53:38.372Z,21.41
2023-02-11T21:56:05.135Z,21.55
2023-02-11T21:58:31.895Z,21.62
2023-02-11T22:00:58.666Z,21.67
2023-02-11T22:03:25.478Z,21.74
2023-02-11T22:05:52.301Z,21.90
2023-02-11T22:08:20.236Z,21.98
2023-02-11T22:10:47.134Z,22.02
2023-02-11T22:13:13.880Z,19.97
2023-02-11T22:15:40.642Z,18.14
2023-02-11T22:18:07.600Z,18.17
2023-02-11T22:20:34.440Z,19.43
2023-02-11T22:23:01.187Z,20.19
2023-02-11T22:25:27.935Z,20.56
2023-02-11T22:27:54.675Z,20.91
2023-02-11T22:30:21.486Z,21.12
2023-02-11T22:32:48.237Z,21.21
2023-02-11T22:35:15.017Z,21.28
2023-02-11T22:37:41.788Z,21.43
2023-02-11T22:40:08.537Z,21.57
2023-02-11T22:42:35.279Z,21.74
2023-02-11T22:45:02.979Z,21.87
2023-02-11T22:47:29.719Z,21.75
2023-02-11T22:49:56.476Z,21.96
2023-02-11T22:52:23.621Z,22.04
2023-02-11T22:54:50.354Z,21.94
2023-02-11T22:57:17.082Z,20.35
2023-02-11T22:59:43.837Z,18.61
2023-02-11T23:02:10.713Z,17.78
2023-02-11T23:04:37.611Z,19.44
2023-02-11T23:07:04.524Z,20.25
2023-02-11T23:09:31.268Z,20.67
2023-02-11T23:11:58.069Z,20.96
2023-02-11T23:14:25.032Z,21.08
2023-02-11T23:16:51.830Z,21.28
2023-02-11T23:19:19.832Z,21.31
2023-02-11T23:21:47.574Z,21.42
2023-02-11T23:24:14.324Z,21.43
2023-02-11T23:26:41.082Z,21.67
2023-02-11T23:29:07.939Z,21.78
2023-02-11T23:31:34.918Z,21.75
2023-02-11T23:34:01.773Z,21.86
2023-02-11T23:36:28.551Z,21.95
2023-02-11T23:38:55.298Z,22.05
2023-02-11T23:41:22.046Z,20.35
2023-02-11T23:43:48.826Z,18.20
2023-02-11T23:46:15.615Z,17.90
2023-02-11T23:48:42.403Z,19.34
2023-02-11T23:51:09.728Z,20.17
2023-02-11T23:53:36.491Z,20.72
2023-02-11T23:56:03.219Z,20.94
2023-02-11T23:58:29.970Z,21.13
